N140JP KTEB-SKBO
Flight info
| Callsign | N140JP |
|---|---|
| Flight time | N/A |
| Altitude | 40000 |
| Route | ELVAE DCT COL DCT WHITE Q409 CRPLR DCT EARZZ DCT CHIEZ/N0487F430 DCT HADWN DCT NUCAR Y307 HANKX AR3 ZQA Y307 ENAMO/N0490F410 UM218 BINSU/N0480F450 UM218 EJA/N0476F470 UQ119 ILSEV/N0497F240 G431 GEPSO A567 VULAM VULAM7D |
| Aircraft | C750/M-SBDE3FGHRWXY/S |
Departure
| Time | 2026-05-09 14:07 |
|---|---|
| Airport | Teterboro Airport (KTEB) |
Arrival
| Time | N/A |
|---|---|
| Airport | El Dorado International Airport (SKBO) |
| Time | Latitude | Longitude | Altitude | Speed | Heading |
|---|---|---|---|---|---|
| 2026-05-09 13:32 | 40.84640 | -74.06687 | 16 ft | 0 kts | 228° |
| 2026-05-09 13:56 | 40.84640 | -74.06690 | 14 ft | 0 kts | 259° |
| 2026-05-09 13:56 | 40.84643 | -74.06693 | 15 ft | 1 kts | 315° |
| 2026-05-09 13:57 | 40.84655 | -74.06682 | -8 ft | 6 kts | 44° |
| 2026-05-09 13:57 | 40.84680 | -74.06675 | 13 ft | 2 kts | 338° |
| 2026-05-09 13:57 | 40.84685 | -74.06681 | 13 ft | 2 kts | 312° |
| 2026-05-09 13:57 | 40.84692 | -74.06691 | 13 ft | 0 kts | 317° |
| 2026-05-09 13:59 | 40.84695 | -74.06695 | 13 ft | 2 kts | 317° |
| 2026-05-09 13:59 | 40.84720 | -74.06723 | 13 ft | 5 kts | 329° |
| 2026-05-09 13:59 | 40.84756 | -74.06695 | 13 ft | 9 kts | 49° |
| 2026-05-09 13:59 | 40.84804 | -74.06627 | 13 ft | 11 kts | 47° |
| 2026-05-09 14:00 | 40.84856 | -74.06548 | 13 ft | 12 kts | 49° |
| 2026-05-09 14:00 | 40.84876 | -74.06518 | 13 ft | 13 kts | 47° |
| 2026-05-09 14:00 | 40.84991 | -74.06350 | 13 ft | 17 kts | 48° |
| 2026-05-09 14:00 | 40.85074 | -74.06228 | -1 ft | 19 kts | 47° |
| 2026-05-09 14:01 | 40.85167 | -74.06092 | 12 ft | 19 kts | 48° |
| 2026-05-09 14:01 | 40.85252 | -74.05967 | 12 ft | 20 kts | 48° |
| 2026-05-09 14:01 | 40.85351 | -74.05821 | 12 ft | 23 kts | 48° |
| 2026-05-09 14:01 | 40.85452 | -74.05674 | 12 ft | 22 kts | 47° |
| 2026-05-09 14:02 | 40.85541 | -74.05539 | 12 ft | 19 kts | 47° |
| 2026-05-09 14:02 | 40.85636 | -74.05397 | 11 ft | 20 kts | 49° |
| 2026-05-09 14:02 | 40.85687 | -74.05334 | 11 ft | 5 kts | 8° |
| 2026-05-09 14:02 | 40.85701 | -74.05338 | 11 ft | 0 kts | 336° |
| 2026-05-09 14:05 | 40.85713 | -74.05351 | 11 ft | 4 kts | 315° |
| 2026-05-09 14:05 | 40.85739 | -74.05384 | 11 ft | 6 kts | 318° |
| 2026-05-09 14:06 | 40.85765 | -74.05420 | 12 ft | 4 kts | 289° |
| 2026-05-09 14:06 | 40.85753 | -74.05446 | 12 ft | 2 kts | 226° |
| 2026-05-09 14:06 | 40.85752 | -74.05446 | 12 ft | 0 kts | 226° |
| 2026-05-09 14:06 | 40.85728 | -74.05480 | 12 ft | 25 kts | 227° |
| 2026-05-09 14:07 | 40.85387 | -74.05981 | 12 ft | 118 kts | 228° |
| 2026-05-09 14:07 | 40.84740 | -74.06940 | 238 ft | 144 kts | 229° |
| 2026-05-09 14:07 | 40.84057 | -74.08006 | 629 ft | 163 kts | 230° |
| 2026-05-09 14:07 | 40.83219 | -74.09209 | 807 ft | 193 kts | 227° |
| 2026-05-09 14:08 | 40.82527 | -74.10889 | 925 ft | 227 kts | 249° |
| 2026-05-09 14:08 | 40.81987 | -74.12954 | 1507 ft | 241 kts | 249° |
| 2026-05-09 14:08 | 40.81461 | -74.14951 | 2723 ft | 228 kts | 252° |
| 2026-05-09 14:08 | 40.81352 | -74.17049 | 3637 ft | 232 kts | 267° |
| 2026-05-09 14:09 | 40.80884 | -74.19066 | 4362 ft | 235 kts | 234° |
| 2026-05-09 14:09 | 40.79771 | -74.20629 | 5205 ft | 236 kts | 220° |
| 2026-05-09 14:09 | 40.78262 | -74.21629 | 5427 ft | 246 kts | 199° |
| 2026-05-09 14:09 | 40.76577 | -74.22034 | 5698 ft | 247 kts | 193° |
| 2026-05-09 14:10 | 40.73207 | -74.22851 | 7044 ft | 243 kts | 195° |
| 2026-05-09 14:10 | 40.71535 | -74.23295 | 7966 ft | 246 kts | 194° |
| 2026-05-09 14:10 | 40.69847 | -74.23728 | 8912 ft | 248 kts | 194° |
| 2026-05-09 14:11 | 40.68136 | -74.24166 | 9791 ft | 251 kts | 194° |
| 2026-05-09 14:11 | 40.66402 | -74.24612 | 10320 ft | 263 kts | 194° |
| 2026-05-09 14:11 | 40.64508 | -74.25106 | 10376 ft | 291 kts | 194° |
| 2026-05-09 14:11 | 40.62435 | -74.25640 | 10430 ft | 314 kts | 193° |
| 2026-05-09 14:12 | 40.60279 | -74.26185 | 11094 ft | 315 kts | 194° |
| 2026-05-09 14:12 | 40.58115 | -74.26738 | 11709 ft | 319 kts | 194° |
| 2026-05-09 14:12 | 40.55906 | -74.27218 | 12242 ft | 327 kts | 188° |
| 2026-05-09 14:12 | 40.53599 | -74.26976 | 12833 ft | 338 kts | 174° |
| 2026-05-09 14:13 | 40.51327 | -74.26003 | 13408 ft | 347 kts | 165° |
| 2026-05-09 14:14 | 40.34829 | -74.17795 | 16934 ft | 377 kts | 167° |
| 2026-05-09 14:15 | 40.32298 | -74.16945 | 17304 ft | 373 kts | 178° |
| 2026-05-09 14:15 | 40.29734 | -74.16746 | 17806 ft | 367 kts | 188° |
| 2026-05-09 14:15 | 40.27225 | -74.17154 | 18277 ft | 362 kts | 198° |
| 2026-05-09 14:15 | 40.24767 | -74.17913 | 18703 ft | 364 kts | 200° |
| 2026-05-09 14:16 | 40.22277 | -74.18660 | 19141 ft | 368 kts | 199° |
| 2026-05-09 14:16 | 40.19770 | -74.19398 | 19615 ft | 370 kts | 199° |
| 2026-05-09 14:16 | 40.17249 | -74.20156 | 20099 ft | 373 kts | 199° |
| 2026-05-09 14:16 | 40.14710 | -74.20927 | 20578 ft | 375 kts | 199° |
| 2026-05-09 14:17 | 40.12145 | -74.21698 | 21070 ft | 378 kts | 199° |
| 2026-05-09 14:17 | 40.09572 | -74.22466 | 21565 ft | 381 kts | 199° |
| 2026-05-09 14:17 | 40.06977 | -74.23243 | 22067 ft | 384 kts | 199° |
| 2026-05-09 14:17 | 40.04401 | -74.24017 | 22529 ft | 386 kts | 199° |
| 2026-05-09 14:18 | 40.01847 | -74.25064 | 22936 ft | 385 kts | 207° |
| 2026-05-09 14:18 | 39.99436 | -74.26553 | 23441 ft | 382 kts | 214° |
| 2026-05-09 14:18 | 39.97214 | -74.28431 | 23863 ft | 381 kts | 220° |
| 2026-05-09 14:18 | 39.95079 | -74.30491 | 24275 ft | 383 kts | 220° |
| 2026-05-09 14:19 | 39.92915 | -74.32538 | 24686 ft | 385 kts | 220° |
| 2026-05-09 14:19 | 39.90738 | -74.34594 | 25087 ft | 388 kts | 220° |
| 2026-05-09 14:19 | 39.88557 | -74.36675 | 25515 ft | 389 kts | 221° |
| 2026-05-09 14:19 | 39.86368 | -74.38766 | 25931 ft | 391 kts | 221° |
| 2026-05-09 14:20 | 39.84165 | -74.40857 | 26291 ft | 394 kts | 220° |
| 2026-05-09 14:20 | 39.81974 | -74.43012 | 26664 ft | 394 kts | 224° |
| 2026-05-09 14:20 | 39.79993 | -74.45474 | 27069 ft | 393 kts | 229° |
| 2026-05-09 14:21 | 39.76807 | -74.49722 | 27733 ft | 396 kts | 229° |
| 2026-05-09 14:21 | 39.74230 | -74.53114 | 28264 ft | 399 kts | 229° |
| 2026-05-09 14:21 | 39.72919 | -74.54854 | 28537 ft | 400 kts | 229° |
| 2026-05-09 14:21 | 39.70328 | -74.58299 | 29075 ft | 403 kts | 229° |
| 2026-05-09 14:22 | 39.68996 | -74.60061 | 29351 ft | 405 kts | 229° |
| 2026-05-09 14:22 | 39.67019 | -74.62668 | 29756 ft | 407 kts | 229° |
| 2026-05-09 14:22 | 39.65023 | -74.65303 | 30148 ft | 409 kts | 229° |
| 2026-05-09 14:22 | 39.63026 | -74.67940 | 30487 ft | 412 kts | 229° |
| 2026-05-09 14:23 | 39.61013 | -74.70596 | 30818 ft | 414 kts | 229° |
| 2026-05-09 14:23 | 39.59014 | -74.73228 | 31253 ft | 413 kts | 229° |
| 2026-05-09 14:23 | 39.56998 | -74.75878 | 31773 ft | 411 kts | 229° |
| 2026-05-09 14:23 | 39.54993 | -74.78516 | 32241 ft | 410 kts | 230° |
| 2026-05-09 14:24 | 39.52993 | -74.81145 | 32719 ft | 409 kts | 230° |
| 2026-05-09 14:24 | 39.50996 | -74.83766 | 33202 ft | 408 kts | 230° |
| 2026-05-09 14:24 | 39.49003 | -74.86380 | 33692 ft | 407 kts | 230° |
| 2026-05-09 14:24 | 39.47015 | -74.88984 | 34162 ft | 405 kts | 230° |
| 2026-05-09 14:25 | 39.45045 | -74.91562 | 34728 ft | 401 kts | 230° |
| 2026-05-09 14:25 | 39.43089 | -74.94122 | 35171 ft | 399 kts | 230° |
| 2026-05-09 14:25 | 39.41134 | -74.96679 | 35601 ft | 398 kts | 230° |
| 2026-05-09 14:25 | 39.39204 | -74.99200 | 36048 ft | 397 kts | 230° |
| 2026-05-09 14:26 | 39.37260 | -75.01735 | 36485 ft | 396 kts | 230° |
| 2026-05-09 14:26 | 39.35324 | -75.04260 | 36936 ft | 395 kts | 230° |
| 2026-05-09 14:26 | 39.33392 | -75.06777 | 37420 ft | 394 kts | 230° |
| 2026-05-09 14:26 | 39.31460 | -75.09293 | 37783 ft | 395 kts | 230° |
| 2026-05-09 14:27 | 39.29498 | -75.11781 | 38189 ft | 396 kts | 228° |
| 2026-05-09 14:27 | 39.27454 | -75.14154 | 38670 ft | 394 kts | 228° |
| 2026-05-09 14:27 | 39.25425 | -75.16524 | 39082 ft | 392 kts | 228° |
| 2026-05-09 14:27 | 39.23411 | -75.18899 | 39360 ft | 393 kts | 228° |
| 2026-05-09 14:28 | 39.21383 | -75.21277 | 39645 ft | 395 kts | 228° |
| 2026-05-09 14:28 | 39.19339 | -75.23658 | 39920 ft | 396 kts | 228° |
| 2026-05-09 14:28 | 39.17321 | -75.26011 | 40213 ft | 396 kts | 228° |
| 2026-05-09 14:28 | 39.15248 | -75.28433 | 40512 ft | 397 kts | 228° |
| 2026-05-09 14:29 | 39.13224 | -75.30794 | 40805 ft | 398 kts | 228° |
| 2026-05-09 14:29 | 39.11168 | -75.33187 | 41107 ft | 399 kts | 228° |
| 2026-05-09 14:29 | 39.09103 | -75.35589 | 41388 ft | 400 kts | 228° |
| 2026-05-09 14:29 | 39.07036 | -75.37990 | 41718 ft | 400 kts | 227° |
| 2026-05-09 14:30 | 39.04824 | -75.40216 | 41994 ft | 408 kts | 221° |
| 2026-05-09 14:30 | 39.02367 | -75.42093 | 42305 ft | 415 kts | 214° |
| 2026-05-09 14:30 | 38.99687 | -75.43587 | 42610 ft | 423 kts | 207° |
| 2026-05-09 14:30 | 38.96825 | -75.44640 | 42879 ft | 433 kts | 200° |
| 2026-05-09 14:31 | 38.93815 | -75.45221 | 43184 ft | 441 kts | 194° |
| 2026-05-09 14:31 | 38.90753 | -75.45626 | 43494 ft | 441 kts | 194° |
| 2026-05-09 14:31 | 38.87698 | -75.46056 | 43773 ft | 442 kts | 195° |
| 2026-05-09 14:31 | 38.84633 | -75.46491 | 44077 ft | 443 kts | 195° |
| 2026-05-09 14:32 | 38.81566 | -75.46912 | 44366 ft | 444 kts | 194° |
| 2026-05-09 14:32 | 38.78534 | -75.47322 | 44647 ft | 444 kts | 194° |
| 2026-05-09 14:32 | 38.75458 | -75.47746 | 44908 ft | 445 kts | 194° |
| 2026-05-09 14:32 | 38.72376 | -75.48174 | 45176 ft | 445 kts | 194° |
| 2026-05-09 14:33 | 38.69299 | -75.48596 | 45445 ft | 445 kts | 194° |
| 2026-05-09 14:33 | 38.66226 | -75.49009 | 45674 ft | 445 kts | 194° |
| 2026-05-09 14:33 | 38.63147 | -75.49425 | 45962 ft | 444 kts | 195° |
| 2026-05-09 14:33 | 38.60070 | -75.49845 | 46217 ft | 444 kts | 195° |
| 2026-05-09 14:34 | 38.56992 | -75.50264 | 46461 ft | 444 kts | 195° |
| 2026-05-09 14:34 | 38.53954 | -75.50675 | 46697 ft | 444 kts | 194° |
| 2026-05-09 14:34 | 38.50884 | -75.51090 | 46932 ft | 444 kts | 194° |
| 2026-05-09 14:34 | 38.47813 | -75.51506 | 47152 ft | 444 kts | 195° |
| 2026-05-09 14:35 | 38.44736 | -75.51922 | 47316 ft | 444 kts | 195° |
| 2026-05-09 14:35 | 38.41660 | -75.52337 | 47565 ft | 443 kts | 195° |
| 2026-05-09 14:35 | 38.38612 | -75.52769 | 47791 ft | 439 kts | 197° |
| 2026-05-09 14:35 | 38.35660 | -75.53595 | 47946 ft | 430 kts | 205° |
| 2026-05-09 14:36 | 38.32877 | -75.54885 | 48138 ft | 422 kts | 212° |
| 2026-05-09 14:36 | 38.30292 | -75.56591 | 48315 ft | 414 kts | 219° |
| 2026-05-09 14:36 | 38.27912 | -75.58618 | 48486 ft | 411 kts | 222° |
| 2026-05-09 14:36 | 38.25557 | -75.60679 | 48649 ft | 411 kts | 221° |
| 2026-05-09 14:37 | 38.23186 | -75.62725 | 48763 ft | 411 kts | 221° |
| 2026-05-09 14:37 | 38.20855 | -75.64748 | 48833 ft | 412 kts | 221° |
| 2026-05-09 14:37 | 38.16083 | -75.68914 | 48837 ft | 420 kts | 221° |
| 2026-05-09 14:38 | 38.11212 | -75.73133 | 48845 ft | 426 kts | 221° |
| 2026-05-09 14:38 | 38.06274 | -75.77417 | 48848 ft | 433 kts | 221° |
| 2026-05-09 14:39 | 38.01253 | -75.81758 | 48828 ft | 438 kts | 221° |
| 2026-05-09 14:39 | 37.96182 | -75.86138 | 48846 ft | 442 kts | 221° |
| 2026-05-09 14:40 | 37.91069 | -75.90545 | 48845 ft | 445 kts | 221° |
| 2026-05-09 14:40 | 37.85949 | -75.94951 | 48848 ft | 446 kts | 221° |
| 2026-05-09 14:41 | 37.80852 | -75.99330 | 48794 ft | 446 kts | 221° |
| 2026-05-09 14:41 | 37.75722 | -76.03731 | 48837 ft | 445 kts | 221° |
| 2026-05-09 14:42 | 37.70587 | -76.08127 | 48839 ft | 445 kts | 221° |
| 2026-05-09 14:42 | 37.65465 | -76.12503 | 48831 ft | 440 kts | 221° |
| 2026-05-09 14:43 | 37.60243 | -76.16529 | 48828 ft | 445 kts | 213° |
| 2026-05-09 14:43 | 37.54372 | -76.19206 | 48851 ft | 454 kts | 206° |
| 2026-05-09 14:44 | 37.48356 | -76.21730 | 48835 ft | 458 kts | 207° |
| 2026-05-09 14:44 | 37.42277 | -76.24239 | 48845 ft | 460 kts | 206° |
| 2026-05-09 14:45 | 37.36195 | -76.26761 | 48848 ft | 459 kts | 207° |
| 2026-05-09 14:45 | 37.30127 | -76.29268 | 48833 ft | 459 kts | 206° |
| 2026-05-09 14:46 | 37.24058 | -76.31773 | 48822 ft | 458 kts | 206° |
| 2026-05-09 14:46 | 37.17988 | -76.34274 | 48819 ft | 459 kts | 206° |
| 2026-05-09 14:47 | 37.11968 | -76.36748 | 48822 ft | 457 kts | 207° |
| 2026-05-09 14:47 | 37.05932 | -76.39228 | 48828 ft | 456 kts | 207° |
| 2026-05-09 14:48 | 36.99901 | -76.41700 | 48830 ft | 455 kts | 207° |
| 2026-05-09 14:48 | 36.93874 | -76.44167 | 48850 ft | 456 kts | 207° |
| 2026-05-09 14:49 | 36.87855 | -76.46623 | 48845 ft | 453 kts | 207° |
| 2026-05-09 14:49 | 36.81916 | -76.49046 | 48838 ft | 450 kts | 207° |
| 2026-05-09 14:50 | 36.75941 | -76.51481 | 48837 ft | 450 kts | 207° |
| 2026-05-09 14:50 | 36.69982 | -76.53906 | 48816 ft | 455 kts | 207° |
| 2026-05-09 14:51 | 36.63990 | -76.56331 | 48862 ft | 451 kts | 207° |
| 2026-05-09 14:51 | 36.58040 | -76.58746 | 48859 ft | 449 kts | 207° |
| 2026-05-09 14:52 | 36.52094 | -76.61151 | 48824 ft | 449 kts | 207° |
| 2026-05-09 14:52 | 36.46141 | -76.63556 | 48812 ft | 448 kts | 207° |
| 2026-05-09 14:53 | 36.40232 | -76.65936 | 48826 ft | 445 kts | 208° |
| 2026-05-09 14:53 | 36.34347 | -76.68308 | 48825 ft | 444 kts | 208° |
| 2026-05-09 14:54 | 36.28460 | -76.70674 | 48831 ft | 445 kts | 208° |
| 2026-05-09 14:54 | 36.22604 | -76.73022 | 48857 ft | 443 kts | 208° |
| 2026-05-09 14:55 | 36.16729 | -76.75378 | 48849 ft | 443 kts | 208° |
| 2026-05-09 14:55 | 36.10847 | -76.77731 | 48857 ft | 444 kts | 208° |
| 2026-05-09 14:56 | 36.04969 | -76.80078 | 48852 ft | 444 kts | 208° |
| 2026-05-09 14:56 | 35.99096 | -76.82419 | 48861 ft | 441 kts | 207° |
| 2026-05-09 14:57 | 35.93266 | -76.84742 | 48845 ft | 440 kts | 207° |
| 2026-05-09 14:57 | 35.87569 | -76.87385 | 48842 ft | 436 kts | 212° |
| 2026-05-09 14:58 | 35.81912 | -76.90194 | 48855 ft | 439 kts | 211° |
| 2026-05-09 14:58 | 35.76291 | -76.93003 | 48858 ft | 436 kts | 211° |
| 2026-05-09 14:59 | 35.70679 | -76.95801 | 48859 ft | 436 kts | 211° |
| 2026-05-09 14:59 | 35.65039 | -76.98607 | 48865 ft | 437 kts | 211° |
| 2026-05-09 15:00 | 35.59410 | -77.01402 | 48860 ft | 436 kts | 211° |
| 2026-05-09 15:00 | 35.53780 | -77.04196 | 48797 ft | 436 kts | 211° |
| 2026-05-09 15:01 | 35.45357 | -77.08368 | 48867 ft | 440 kts | 211° |
| 2026-05-09 15:02 | 35.39679 | -77.11169 | 48864 ft | 438 kts | 211° |
| 2026-05-09 15:02 | 35.34020 | -77.13965 | 48861 ft | 438 kts | 211° |
| 2026-05-09 15:03 | 35.28359 | -77.16751 | 48855 ft | 438 kts | 211° |
| 2026-05-09 15:03 | 35.22692 | -77.19541 | 48852 ft | 439 kts | 211° |
| 2026-05-09 15:04 | 35.17029 | -77.22321 | 48855 ft | 438 kts | 211° |
| 2026-05-09 15:06 | 34.94190 | -77.33495 | 48862 ft | 444 kts | 211° |
| 2026-05-09 15:06 | 34.88457 | -77.36294 | 48858 ft | 444 kts | 211° |
| 2026-05-09 15:07 | 34.82719 | -77.39084 | 48826 ft | 442 kts | 210° |
| 2026-05-09 15:07 | 34.77043 | -77.41842 | 48852 ft | 437 kts | 210° |
| 2026-05-09 15:08 | 34.71389 | -77.44589 | 48851 ft | 438 kts | 210° |
| 2026-05-09 15:08 | 34.62888 | -77.48704 | 48860 ft | 439 kts | 210° |
| 2026-05-09 15:10 | 34.39758 | -77.54462 | 48859 ft | 460 kts | 191° |
| 2026-05-09 15:11 | 34.33357 | -77.54689 | 48845 ft | 459 kts | 191° |
| 2026-05-09 15:11 | 34.26950 | -77.54907 | 48848 ft | 462 kts | 191° |
| 2026-05-09 15:12 | 34.20495 | -77.55130 | 48846 ft | 464 kts | 191° |
| 2026-05-09 15:12 | 34.14061 | -77.55348 | 48845 ft | 461 kts | 191° |
| 2026-05-09 15:13 | 34.07649 | -77.55570 | 48851 ft | 460 kts | 191° |
| 2026-05-09 15:13 | 34.01216 | -77.55793 | 48849 ft | 465 kts | 191° |
| 2026-05-09 15:14 | 33.94763 | -77.56010 | 48858 ft | 467 kts | 191° |
| 2026-05-09 15:14 | 33.88279 | -77.56230 | 48858 ft | 464 kts | 191° |
| 2026-05-09 15:15 | 33.81824 | -77.56451 | 48860 ft | 463 kts | 192° |
| 2026-05-09 15:15 | 33.75350 | -77.56675 | 48856 ft | 468 kts | 192° |
| 2026-05-09 15:16 | 33.68831 | -77.56892 | 48866 ft | 469 kts | 192° |
| 2026-05-09 15:16 | 33.62322 | -77.57113 | 48858 ft | 466 kts | 192° |
| 2026-05-09 15:17 | 33.55891 | -77.57331 | 48861 ft | 463 kts | 192° |
| 2026-05-09 15:17 | 33.49407 | -77.57554 | 48859 ft | 467 kts | 192° |
| 2026-05-09 15:18 | 33.42894 | -77.57770 | 48870 ft | 468 kts | 192° |
| 2026-05-09 15:18 | 33.36384 | -77.57990 | 48872 ft | 466 kts | 192° |
| 2026-05-09 15:19 | 33.29908 | -77.58208 | 48870 ft | 464 kts | 192° |
| 2026-05-09 15:19 | 33.23465 | -77.58427 | 48868 ft | 467 kts | 192° |
| 2026-05-09 15:20 | 33.13720 | -77.58751 | 48878 ft | 466 kts | 192° |
| 2026-05-09 15:21 | 33.07222 | -77.58970 | 48875 ft | 466 kts | 192° |
| 2026-05-09 15:21 | 33.00753 | -77.59185 | 48869 ft | 466 kts | 193° |
| 2026-05-09 15:22 | 32.94230 | -77.59408 | 48875 ft | 470 kts | 192° |
| 2026-05-09 15:22 | 32.87717 | -77.59619 | 48878 ft | 470 kts | 192° |
| 2026-05-09 15:23 | 32.81194 | -77.59838 | 48881 ft | 468 kts | 192° |
| 2026-05-09 15:23 | 32.74681 | -77.60056 | 48878 ft | 469 kts | 192° |
| 2026-05-09 15:24 | 32.68153 | -77.60272 | 48877 ft | 469 kts | 192° |
| 2026-05-09 15:24 | 32.61632 | -77.60487 | 48876 ft | 469 kts | 192° |
| 2026-05-09 15:25 | 32.55104 | -77.60704 | 48875 ft | 469 kts | 192° |
| 2026-05-09 15:25 | 32.48592 | -77.60919 | 48878 ft | 469 kts | 193° |
| 2026-05-09 15:26 | 32.38765 | -77.61242 | 48877 ft | 470 kts | 193° |
| 2026-05-09 15:26 | 32.32235 | -77.61458 | 48878 ft | 469 kts | 193° |
| 2026-05-09 15:27 | 32.25750 | -77.61672 | 48864 ft | 468 kts | 193° |
| 2026-05-09 15:27 | 32.19228 | -77.61888 | 48881 ft | 470 kts | 193° |
| 2026-05-09 15:28 | 32.12675 | -77.62100 | 48885 ft | 471 kts | 193° |
| 2026-05-09 15:28 | 32.06130 | -77.62314 | 48882 ft | 469 kts | 193° |
| 2026-05-09 15:29 | 31.99597 | -77.62529 | 48833 ft | 469 kts | 193° |
| 2026-05-09 15:29 | 31.93054 | -77.62745 | 48879 ft | 473 kts | 194° |
| 2026-05-09 15:30 | 31.86444 | -77.62958 | 48885 ft | 476 kts | 193° |
| 2026-05-09 15:30 | 31.79870 | -77.63171 | 48875 ft | 475 kts | 193° |
| 2026-05-09 15:31 | 31.73249 | -77.63385 | 48853 ft | 472 kts | 194° |
| 2026-05-09 15:31 | 31.66674 | -77.63607 | 48877 ft | 478 kts | 194° |
| 2026-05-09 15:32 | 31.60003 | -77.63814 | 48892 ft | 480 kts | 194° |
| 2026-05-09 15:32 | 31.53341 | -77.64032 | 48888 ft | 478 kts | 194° |
| 2026-05-09 15:33 | 31.46693 | -77.64247 | 48845 ft | 477 kts | 194° |
| 2026-05-09 15:33 | 31.40025 | -77.64466 | 48884 ft | 481 kts | 194° |
| 2026-05-09 15:34 | 31.33344 | -77.64678 | 48892 ft | 484 kts | 194° |
| 2026-05-09 15:34 | 31.26607 | -77.64893 | 48888 ft | 482 kts | 194° |
| 2026-05-09 15:35 | 31.19893 | -77.64986 | 48849 ft | 484 kts | 192° |
| 2026-05-09 15:35 | 31.13151 | -77.64939 | 48890 ft | 485 kts | 192° |
| 2026-05-09 15:36 | 31.06383 | -77.64907 | 48892 ft | 486 kts | 192° |
| 2026-05-09 15:36 | 30.99632 | -77.64864 | 48888 ft | 484 kts | 192° |
| 2026-05-09 15:37 | 30.92928 | -77.64831 | 48886 ft | 485 kts | 192° |
| 2026-05-09 15:37 | 30.86205 | -77.64788 | 48888 ft | 482 kts | 192° |
| 2026-05-09 15:38 | 30.79480 | -77.64756 | 48890 ft | 483 kts | 192° |
| 2026-05-09 15:38 | 30.72747 | -77.64714 | 48893 ft | 483 kts | 192° |
| 2026-05-09 15:39 | 30.66064 | -77.64679 | 48884 ft | 483 kts | 192° |
| 2026-05-09 15:39 | 30.59348 | -77.64640 | 48880 ft | 482 kts | 192° |
| 2026-05-09 15:40 | 30.52628 | -77.64606 | 48886 ft | 484 kts | 191° |
| 2026-05-09 15:40 | 30.45891 | -77.64564 | 48887 ft | 483 kts | 192° |
| 2026-05-09 15:41 | 30.39181 | -77.64530 | 48884 ft | 482 kts | 192° |
| 2026-05-09 15:41 | 30.32475 | -77.64491 | 48876 ft | 481 kts | 191° |
| 2026-05-09 15:42 | 30.25771 | -77.64457 | 48880 ft | 482 kts | 191° |